Lake Nebagamon, WI (54849)

7:17 PM CST on February 20, 2017 (GMT -0600)
Norwood Golf Course | | Change Station

Elev 1148 ft 46.49 °N, 91.74 °W | Updated 1 second ago

Rain
Rain
46.9 °F
Feels Like 47 °F
N
0.7
Wind Variable Wind from South
Gusts 8.3 mph

Today
High -- | Low -- °F
--% Chance of Precip.
Yesterday
High -- | Low -- °F
Precip. -- in
Pressure 29.63 in
Visibility 0.8 miles
Clouds Overcast 400 ft
Windchill 47 °F
Dew Point 47 °F
Humidity 99%
Rainfall 0.48 in
Snow Depth Not available.
7:01 AM 5:40 PM
Waning Crescent, 29% visible
METAR KDYT 210114Z AUTO 00000KT 3/4SM RA OVC004 02/01 A2963 RMK AO2
Pressure 29.63 in
Visibility 0.8 miles
Clouds Overcast 400 ft
Windchill 47 °F
Dew Point 47 °F
Humidity 99%
Rainfall 0.48 in
Snow Depth Not available.
7:01 AM 5:40 PM
Waning Crescent, 29% visible
METAR KDYT 210114Z AUTO 00000KT 3/4SM RA OVC004 02/01 A2963 RMK AO2

Get Your Daily Forecast Email!

Thanks for signing up!

Be on the lookout for a verification email in your inbox.

You'll start receiving the daily forecast at 8 AM.

×

10-Day Weather Forecast

Almanac

Astronomy

Feb. 20, 2017 Rise Set
Actual Time
Civil Twilight
Nautical Twilight
Astronomical Twilight
Moon
Length of Visible Light
Length of Day
Tomorrow will be .
, % of the Moon is Illuminated

Today's Extremes

State Highs State Lows

Community

WunderPhotos

Upload Photos

1,962,540 photos uploaded!

WunderBlog® & News

Nearby

Air Quality

  Air Quality AQ Index Pollutant
Not available.

Snow Depth

Station Depth Elevation

Earthquake Activity

City Distance Mag. Time & Date
Minimum magnitude displayed is 2.5.

Coastal Water Temperatures

Place Temperature

Stations

Nearby Weather Stations

Station Location Temp. Windchill Dew Point Humidity Wind Precip. Elev Updated Type
                   

Watches & Warnings

There are currently no watches in effect.